Manzanita, Mexico

4:28 PM CDT on July 20, 2019 (GMT -0500)
San Felipe | | Change Station

Elev 5469 ft 17.10 °N, 96.71 °W | Updated 15 seconds ago

Mostly Cloudy
Mostly Cloudy
84.4 °F
Feels Like 83 °F
N
0.7
Wind Variable Wind from WSW
Gusts 1.1 mph

Today
High -- | Low -- °F
--% Chance of Precip.
Yesterday
High -- | Low -- °F
Precip. -- in
Pressure 29.75 in
Visibility 10.0 miles
Clouds Mostly Cloudy 22000 ft
Heat Index 83 °F
Dew Point 55 °F
Humidity 37%
Rainfall 0.00 in
Snow Depth Not available.
7:03 AM 8:04 PM
Waning Gibbous, 86% visible
METAR MMOX 202045Z 14005KT 10SM BKN220 28/10 A3011 RMK SLP073 57029 969 8/002 TCU N W/CU ARND
Pressure 29.75 in
Visibility 10.0 miles
Clouds Mostly Cloudy 22000 ft
Heat Index 83 °F
Dew Point 55 °F
Humidity 37%
Rainfall 0.00 in
Snow Depth Not available.
7:03 AM 8:04 PM
Waning Gibbous, 86% visible
METAR MMOX 202045Z 14005KT 10SM BKN220 28/10 A3011 RMK SLP073 57029 969 8/002 TCU N W/CU ARND

Get Severe Weather Alerts

Thanks for signing up!

Be on the lookout for a verification email in your inbox.

You'll start receiving the daily forecast at 6 AM.

×

10-Day Weather Forecast

No radar image for this location.
×

Almanac

Astronomy

Jul. 20, 2019 Rise Set
Actual Time
Civil Twilight
Nautical Twilight
Astronomical Twilight
Moon
Length of Visible Light
Length of Day
Tomorrow will be .
, % of the Moon is Illuminated

Today's Extremes

Country Highs Country Lows

Community

WunderPhotos

Category 6

Welcome to Category 6. This is the collective home for Weather Underground's featured writeups by Dr. Jeff Masters (right), Bob Henson (left), Chris Burt, and other regular contributors.

Nearby

Air Quality

  Air Quality AQ Index Pollutant
Not available.

Snow Depth

Station Depth Elevation

Earthquake Activity

City Distance Mag. Time & Date
Minimum magnitude displayed is 2.5.

Coastal Water Temperatures

Place Temperature

Stations

Nearby Weather Stations

Station Location Temp. Windchill Dew Point Humidity Wind Precip. Elev Updated Type